Time;durP1;ratioP1;P1;durP2;ratioP2;P2;SDS_P1;SDS_P2;PMS_P1;PMS_P2;Temp;Humidity;BMP_temperature;BMP_pressure;BME280_temperature;BME280_humidity;BME280_pressure;Samples;Min_cycle;Max_cycle;Signal;HPM_P1;HPM_P2
2022/08/10 00:02:49;;;;;;;0.40;0.40;;;18.60;99.90;;;;;;5054227;28;20665;-64
2022/08/10 00:05:37;;;;;;;0.40;0.40;;;18.50;99.90;;;;;;5051779;28;20206;-67
2022/08/10 00:08:40;;;;;;;0.40;0.40;;;18.50;99.90;;;;;;5051488;28;20553;-67
2022/08/10 00:11:28;;;;;;;0.40;0.40;;;18.40;99.90;;;;;;5051552;28;20205;-66
2022/08/10 00:14:16;;;;;;;0.40;0.40;;;18.40;99.90;;;;;;5051244;28;20228;-66
2022/08/10 00:17:04;;;;;;;0.40;0.40;;;18.30;99.90;;;;;;5051350;28;20202;-66
2022/08/10 00:19:54;;;;;;;0.50;0.50;;;18.40;99.90;;;;;;5051048;28;20229;-65
2022/08/10 00:22:55;;;;;;;1.13;1.13;;;18.30;99.90;;;;;;5051588;28;20189;-66
2022/08/10 00:25:44;;;;;;;0.40;0.40;;;18.20;99.90;;;;;;5051497;28;20198;-65
2022/08/10 00:28:33;;;;;;;0.40;0.40;;;18.20;99.90;;;;;;5051795;28;20682;-65
2022/08/10 00:31:21;;;;;;;0.40;0.40;;;18.10;99.90;;;;;;5051493;28;20678;-66
2022/08/10 00:34:09;;;;;;;0.50;0.50;;;18.10;99.90;;;;;;5051542;28;20592;-64
2022/08/10 00:36:59;;;;;;;0.40;0.40;;;18.10;99.90;;;;;;5054470;28;20251;-65
2022/08/10 00:39:47;;;;;;;0.50;0.50;;;18.10;99.90;;;;;;5056828;28;20636;-65
2022/08/10 00:42:35;;;;;;;0.40;0.40;;;18.00;99.90;;;;;;5056500;28;20283;-64
2022/08/10 00:45:23;;;;;;;0.40;0.40;;;17.90;99.90;;;;;;5056618;28;20193;-65
2022/08/10 00:48:11;;;;;;;0.40;0.40;;;17.90;99.90;;;;;;5056374;28;20197;-65
2022/08/10 00:51:00;;;;;;;0.40;0.40;;;17.80;99.90;;;;;;5057053;28;20279;-64
2022/08/10 00:53:50;;;;;;;0.40;0.40;;;17.80;99.90;;;;;;5056855;28;20217;-64
2022/08/10 00:56:38;;;;;;;0.40;0.40;;;17.70;99.90;;;;;;5056885;28;20201;-66
2022/08/10 00:59:46;;;;;;;0.40;0.40;;;17.80;99.90;;;;;;5056032;28;20355;-65
2022/08/10 01:02:46;;;;;;;0.50;0.50;;;17.60;99.90;;;;;;5056592;28;20204;-64
2022/08/10 01:05:39;;;;;;;0.40;0.40;;;17.70;99.90;;;;;;5056439;28;20194;-65
2022/08/10 01:08:43;;;;;;;0.40;0.40;;;17.50;99.90;;;;;;5056685;28;20208;-66
2022/08/10 01:11:38;;;;;;;0.40;0.40;;;17.50;99.90;;;;;;5055994;28;20197;-65
2022/08/10 01:14:56;;;;;;;0.50;0.50;;;17.50;99.90;;;;;;5056199;28;20279;-64
2022/08/10 01:17:52;;;;;;;0.50;0.50;;;17.40;99.90;;;;;;5056729;28;20262;-65
2022/08/10 01:20:52;;;;;;;0.50;0.50;;;17.50;99.90;;;;;;5056193;28;20225;-65
2022/08/10 01:24:08;;;;;;;0.40;0.40;;;17.40;99.90;;;;;;5056318;28;20205;-64
2022/08/10 01:27:15;;;;;;;0.40;0.40;;;17.30;99.90;;;;;;5056175;28;20689;-63
2022/08/10 01:30:07;;;;;;;0.40;0.40;;;17.30;99.90;;;;;;5054652;28;20217;-64
2022/08/10 01:33:03;;;;;;;0.40;0.40;;;17.10;99.90;;;;;;5056258;28;20205;-64
2022/08/10 01:35:55;;;;;;;0.40;0.40;;;17.10;99.90;;;;;;5055926;28;20270;-65
2022/08/10 01:38:47;;;;;;;0.50;0.50;;;16.90;99.90;;;;;;5055349;28;20321;-64
2022/08/10 01:41:41;;;;;;;0.40;0.40;;;16.90;99.90;;;;;;5055739;28;20572;-65
2022/08/10 01:44:37;;;;;;;0.40;0.40;;;17.00;99.90;;;;;;5056752;28;20227;-64
2022/08/10 01:50:40;;;;;;;0.40;0.40;;;16.70;99.90;;;;;;5056313;28;20263;-65
2022/08/10 01:53:51;;;;;;;0.50;0.50;;;16.60;99.90;;;;;;5056060;28;20690;-65
2022/08/10 01:56:43;;;;;;;0.50;0.50;;;16.60;99.90;;;;;;5057601;28;20632;-64
2022/08/10 01:59:34;;;;;;;0.50;0.50;;;16.60;99.90;;;;;;5054580;28;20295;-65
2022/08/10 02:02:25;;;;;;;0.40;0.40;;;16.50;99.90;;;;;;5055969;28;20209;-65
2022/08/10 02:05:17;;;;;;;0.40;0.40;;;16.50;99.90;;;;;;5056184;28;20201;-65
2022/08/10 02:08:08;;;;;;;0.40;0.40;;;16.40;99.90;;;;;;5055834;28;20201;-64
2022/08/10 02:10:58;;;;;;;0.40;0.40;;;16.40;99.90;;;;;;5055669;28;20275;-64
2022/08/10 02:13:47;;;;;;;0.45;0.45;;;16.30;99.90;;;;;;5055668;28;20217;-65
2022/08/10 02:16:39;;;;;;;0.50;0.50;;;16.40;99.90;;;;;;5055979;28;20193;-64
2022/08/10 02:19:31;;;;;;;0.50;0.50;;;16.30;99.90;;;;;;5053656;28;20306;-64
2022/08/10 02:22:22;;;;;;;2.60;2.28;;;16.30;99.90;;;;;;5056086;28;20208;-64
2022/08/10 02:25:27;;;;;;;0.70;0.70;;;16.20;99.90;;;;;;5055312;28;20693;-64
2022/08/10 02:28:32;;;;;;;0.50;0.50;;;16.20;99.90;;;;;;5055227;28;20197;-66
2022/08/10 02:31:23;;;;;;;0.50;0.50;;;16.10;99.90;;;;;;5055529;28;20209;-64
2022/08/10 02:34:14;;;;;;;0.50;0.50;;;16.20;99.90;;;;;;5054606;28;20225;-65
2022/08/10 02:37:04;;;;;;;0.40;0.40;;;16.20;99.90;;;;;;5054718;28;20728;-64
2022/08/10 02:40:01;;;;;;;0.40;0.40;;;16.10;99.90;;;;;;5054288;28;20701;-64
2022/08/10 02:42:57;;;;;;;0.50;0.50;;;16.10;99.90;;;;;;5054640;28;20201;-64
2022/08/10 02:46:09;;;;;;;0.40;0.40;;;16.10;99.90;;;;;;5054533;28;20221;-64
2022/08/10 02:49:01;;;;;;;0.50;0.50;;;16.00;99.90;;;;;;5053739;28;20210;-65
2022/08/10 02:51:54;;;;;;;0.40;0.40;;;16.00;99.90;;;;;;5053614;28;20231;-64
2022/08/10 02:55:03;;;;;;;0.40;0.40;;;15.90;99.90;;;;;;5054065;28;20236;-65
2022/08/10 02:57:56;;;;;;;0.47;0.47;;;15.90;99.90;;;;;;5054879;28;20201;-66
2022/08/10 03:01:07;;;;;;;0.40;0.40;;;16.10;99.90;;;;;;5054207;28;20217;-66
2022/08/10 03:03:59;;;;;;;0.50;0.50;;;15.80;99.90;;;;;;5054380;28;20285;-72
2022/08/10 03:06:53;;;;;;;0.40;0.40;;;15.90;99.90;;;;;;5054472;28;20197;-64
2022/08/10 03:09:42;;;;;;;0.40;0.40;;;15.80;99.90;;;;;;5053734;28;20225;-64
2022/08/10 03:12:35;;;;;;;0.40;0.40;;;15.80;99.90;;;;;;5053956;28;20198;-65
2022/08/10 03:15:28;;;;;;;0.50;0.50;;;15.70;99.90;;;;;;5053981;28;20233;-64
2022/08/10 03:18:18;;;;;;;0.40;0.40;;;15.70;99.90;;;;;;5054417;28;20201;-65
2022/08/10 03:21:08;;;;;;;0.40;0.40;;;15.60;99.90;;;;;;5053800;28;20236;-66
2022/08/10 03:24:01;;;;;;;0.40;0.40;;;15.60;99.90;;;;;;5053981;28;20213;-64
2022/08/10 03:27:10;;;;;;;0.43;0.43;;;15.50;99.90;;;;;;5054045;28;20695;-65
2022/08/10 03:30:00;;;;;;;0.40;0.40;;;15.50;99.90;;;;;;5058365;28;20224;-64
2022/08/10 03:33:09;;;;;;;0.40;0.40;;;15.50;99.90;;;;;;5064152;28;20197;-64
2022/08/10 03:35:58;;;;;;;0.40;0.40;;;15.50;99.90;;;;;;5065270;28;20217;-68
2022/08/10 03:39:06;;;;;;;0.43;0.43;;;15.40;99.90;;;;;;5064189;28;20257;-65
2022/08/10 03:41:58;;;;;;;0.40;0.40;;;15.40;99.90;;;;;;5064212;28;20599;-64
2022/08/10 03:44:47;;;;;;;0.40;0.40;;;15.40;99.90;;;;;;5063783;28;20200;-64
2022/08/10 03:47:42;;;;;;;0.40;0.40;;;15.40;99.90;;;;;;5064683;28;20220;-65
2022/08/10 03:50:31;;;;;;;0.40;0.40;;;15.60;99.90;;;;;;5064113;28;20271;-66
2022/08/10 03:53:39;;;;;;;0.50;0.50;;;15.50;99.90;;;;;;5064008;28;20205;-65
2022/08/10 03:56:48;;;;;;;0.40;0.40;;;15.40;99.90;;;;;;5056454;28;20340;-65
2022/08/10 03:59:37;;;;;;;0.40;0.40;;;15.40;99.90;;;;;;5051794;28;20225;-64
2022/08/10 04:02:26;;;;;;;0.40;0.40;;;15.40;99.90;;;;;;5052476;28;20267;-65
2022/08/10 04:05:36;;;;;;;0.50;0.50;;;15.40;99.90;;;;;;5051900;28;20209;-67
2022/08/10 04:08:25;;;;;;;0.40;0.40;;;15.50;99.90;;;;;;5051407;28;20201;-66
2022/08/10 04:11:14;;;;;;;0.40;0.40;;;15.40;99.90;;;;;;5049682;28;20221;-65
2022/08/10 04:14:02;;;;;;;0.40;0.40;;;15.40;99.90;;;;;;5051322;28;20255;-66
2022/08/10 04:16:50;;;;;;;0.40;0.40;;;15.50;99.90;;;;;;5051080;28;20452;-64
2022/08/10 04:19:44;;;;;;;0.40;0.40;;;15.40;99.90;;;;;;5050297;28;20213;-65
2022/08/10 04:22:36;;;;;;;0.50;0.50;;;15.40;99.90;;;;;;5050750;28;20197;-65
2022/08/10 04:25:26;;;;;;;0.40;0.40;;;15.40;99.90;;;;;;5051564;28;20201;-65
2022/08/10 04:28:14;;;;;;;0.50;0.50;;;15.30;99.90;;;;;;5051391;28;20208;-66
2022/08/10 04:31:06;;;;;;;0.50;0.50;;;15.30;99.90;;;;;;5051780;28;20451;-67
2022/08/10 04:33:55;;;;;;;0.50;0.50;;;15.30;99.90;;;;;;5052778;28;20227;-67
2022/08/10 04:36:44;;;;;;;0.40;0.40;;;15.30;99.90;;;;;;5052701;28;20306;-66
2022/08/10 04:39:34;;;;;;;0.40;0.40;;;15.40;99.90;;;;;;5052254;28;20213;-66
2022/08/10 04:42:22;;;;;;;0.50;0.50;;;15.40;99.90;;;;;;5053424;28;20424;-64
2022/08/10 04:45:13;;;;;;;0.50;0.50;;;15.50;99.90;;;;;;5052847;28;20251;-65
2022/08/10 04:48:01;;;;;;;0.40;0.40;;;15.50;99.90;;;;;;5052470;28;20608;-64
2022/08/10 04:50:50;;;;;;;0.40;0.40;;;15.60;99.90;;;;;;5052648;28;20346;-67
2022/08/10 04:53:39;;;;;;;0.40;0.40;;;15.60;99.90;;;;;;5052954;28;20284;-67
2022/08/10 04:56:48;;;;;;;0.40;0.40;;;15.70;99.90;;;;;;5052224;28;20677;-67
2022/08/10 04:59:36;;;;;;;0.40;0.40;;;15.60;99.90;;;;;;5052150;28;20295;-64
2022/08/10 05:02:24;;;;;;;0.40;0.40;;;15.80;99.90;;;;;;5052546;28;20209;-68
2022/08/10 05:05:19;;;;;;;0.40;0.40;;;15.90;99.90;;;;;;5052176;28;20693;-64
2022/08/10 05:08:07;;;;;;;0.40;0.40;;;15.90;99.90;;;;;;5052573;28;20620;-64
2022/08/10 05:10:55;;;;;;;0.40;0.40;;;16.00;99.90;;;;;;5052111;28;20467;-65
2022/08/10 05:13:44;;;;;;;0.40;0.40;;;16.00;99.90;;;;;;5053098;28;20243;-64
2022/08/10 05:16:33;;;;;;;0.40;0.40;;;16.00;99.90;;;;;;5052224;28;20194;-65
2022/08/10 05:19:22;;;;;;;0.50;0.50;;;16.00;99.90;;;;;;5052534;28;20378;-65
2022/08/10 05:22:30;;;;;;;0.40;0.40;;;16.20;99.90;;;;;;5053647;28;20693;-68
2022/08/10 05:25:19;;;;;;;0.50;0.50;;;16.20;99.90;;;;;;5055335;28;20464;-65
2022/08/10 05:28:08;;;;;;;0.40;0.40;;;16.30;99.90;;;;;;5055972;28;20621;-66
2022/08/10 05:30:57;;;;;;;0.40;0.40;;;16.40;99.90;;;;;;5055764;28;20725;-64
2022/08/10 05:33:46;;;;;;;0.50;0.50;;;16.40;99.90;;;;;;5055690;28;20197;-65
2022/08/10 05:36:35;;;;;;;0.50;0.50;;;16.40;99.90;;;;;;5055526;28;20251;-66
2022/08/10 05:39:24;;;;;;;0.50;0.50;;;16.60;99.90;;;;;;5055514;28;20610;-67
2022/08/10 05:42:20;;;;;;;0.40;0.40;;;16.80;99.90;;;;;;5056263;28;20204;-69
2022/08/10 05:45:19;;;;;;;0.50;0.50;;;16.90;99.90;;;;;;5055437;28;20247;-69
2022/08/10 05:48:09;;;;;;;0.40;0.40;;;17.10;99.90;;;;;;5055887;28;20202;-66
2022/08/10 05:51:18;;;;;;;0.50;0.50;;;17.20;99.90;;;;;;5056479;28;20263;-66
2022/08/10 05:54:13;;;;;;;0.40;0.40;;;17.20;99.90;;;;;;5056182;28;20205;-68
2022/08/10 05:57:02;;;;;;;0.40;0.40;;;17.20;99.90;;;;;;5055229;28;20572;-67
2022/08/10 06:00:03;;;;;;;0.50;0.50;;;17.20;99.90;;;;;;5054175;28;20320;-67
2022/08/10 06:03:16;;;;;;;0.40;0.40;;;17.20;99.90;;;;;;5055357;28;20257;-69
2022/08/10 06:06:13;;;;;;;0.50;0.50;;;17.30;99.90;;;;;;5055364;28;20605;-65
2022/08/10 06:09:01;;;;;;;0.40;0.40;;;17.40;99.90;;;;;;5054745;28;20237;-67
2022/08/10 06:11:52;;;;;;;0.50;0.50;;;17.50;99.90;;;;;;5042212;28;20205;-65
2022/08/10 06:14:59;;;;;;;0.40;0.40;;;17.50;99.90;;;;;;5039297;28;20201;-65
2022/08/10 06:17:58;;;;;;;0.40;0.40;;;17.60;99.90;;;;;;5053377;28;20225;-65
2022/08/10 06:20:51;;;;;;;0.40;0.40;;;17.80;99.90;;;;;;5042938;28;20244;-66
2022/08/10 06:23:40;;;;;;;0.50;0.50;;;17.80;99.90;;;;;;5053888;28;20271;-68
2022/08/10 06:26:29;;;;;;;0.40;0.40;;;17.90;99.90;;;;;;5054216;28;20247;-66
2022/08/10 06:29:20;;;;;;;0.50;0.50;;;18.10;99.90;;;;;;5052404;28;20266;-64
2022/08/10 06:32:12;;;;;;;0.40;0.40;;;18.10;99.90;;;;;;5054028;28;20595;-65
2022/08/10 06:35:03;;;;;;;0.40;0.40;;;18.30;99.90;;;;;;5033037;28;20202;-66
2022/08/10 06:37:55;;;;;;;0.40;0.40;;;18.30;99.90;;;;;;5046336;28;20213;-68
2022/08/10 06:40:46;;;;;;;0.50;0.50;;;18.30;99.90;;;;;;5044332;28;20220;-65
2022/08/10 06:43:35;;;;;;;0.40;0.40;;;18.40;99.90;;;;;;5042608;28;20259;-68
2022/08/10 06:46:26;;;;;;;0.50;0.50;;;18.60;99.90;;;;;;5052076;28;20275;-66
2022/08/10 06:49:18;;;;;;;0.50;0.50;;;18.60;99.90;;;;;;5051744;28;20217;-68
2022/08/10 06:52:10;;;;;;;0.40;0.40;;;18.80;99.90;;;;;;5053817;28;20713;-67
2022/08/10 06:55:09;;;;;;;0.40;0.40;;;18.80;99.90;;;;;;5051549;28;20209;-67
2022/08/10 06:57:59;;;;;;;0.40;0.40;;;18.90;99.90;;;;;;5044799;28;20198;-66
2022/08/10 07:00:49;;;;;;;0.45;0.45;;;19.00;99.90;;;;;;5051302;28;20221;-66
2022/08/10 07:03:45;;;;;;;0.40;0.40;;;19.10;99.90;;;;;;5051974;28;20690;-66
2022/08/10 07:06:36;;;;;;;0.40;0.40;;;19.10;99.90;;;;;;5052600;28;20593;-65
2022/08/10 07:09:25;;;;;;;0.50;0.50;;;19.30;99.90;;;;;;5052613;28;20316;-66
2022/08/10 07:12:15;;;;;;;0.50;0.50;;;19.30;99.90;;;;;;5052163;28;20205;-66
2022/08/10 07:15:06;;;;;;;0.40;0.40;;;19.40;99.90;;;;;;5050618;28;20197;-65
2022/08/10 07:17:55;;;;;;;0.40;0.40;;;19.50;99.90;;;;;;5034182;28;20813;-64
2022/08/10 07:20:45;;;;;;;0.40;0.40;;;19.50;99.90;;;;;;5042759;28;20578;-66
2022/08/10 07:23:36;;;;;;;0.40;0.40;;;19.60;99.90;;;;;;5051026;28;20630;-67
2022/08/10 07:26:47;;;;;;;0.40;0.40;;;19.60;99.90;;;;;;5052330;28;20221;-65
2022/08/10 07:29:39;;;;;;;0.40;0.40;;;19.70;99.90;;;;;;5052672;28;20222;-64
2022/08/10 07:32:44;;;;;;;0.40;0.40;;;19.80;99.90;;;;;;5051689;28;20689;-65
2022/08/10 07:35:35;;;;;;;0.40;0.40;;;19.90;99.90;;;;;;5050970;28;20279;-66
2022/08/10 07:38:32;;;;;;;0.50;0.50;;;20.00;99.90;;;;;;5050392;28;20201;-66
2022/08/10 07:41:24;;;;;;;0.50;0.50;;;20.00;99.90;;;;;;5050171;28;20701;-64
2022/08/10 07:44:14;;;;;;;0.40;0.40;;;20.10;99.90;;;;;;5050343;28;20233;-66
2022/08/10 07:47:05;;;;;;;0.40;0.40;;;20.30;99.90;;;;;;5050390;28;20701;-66
2022/08/10 07:49:58;;;;;;;0.88;0.88;;;20.40;99.90;;;;;;5049879;28;20274;-65
2022/08/10 07:52:49;;;;;;;0.40;0.40;;;20.60;99.90;;;;;;5050528;28;20209;-66
2022/08/10 07:55:42;;;;;;;0.40;0.40;;;20.70;99.90;;;;;;5050405;28;20198;-66
2022/08/10 07:58:37;;;;;;;0.40;0.40;;;20.80;99.90;;;;;;5051522;28;20594;-66
2022/08/10 08:01:05;;;;;;;0.40;0.40;;;20.90;99.90;;;;;;5051998;28;20576;-67
2022/08/10 08:03:36;;;;;;;0.50;0.50;;;21.10;99.90;;;;;;5054988;28;20220;-67
2022/08/10 08:06:06;;;;;;;0.40;0.40;;;21.10;99.90;;;;;;5053494;28;20605;-65
2022/08/10 08:08:42;;;;;;;0.40;0.40;;;21.30;99.90;;;;;;5051943;28;20213;-66
2022/08/10 08:11:13;;;;;;;0.40;0.40;;;21.30;99.90;;;;;;5051353;28;20931;-65
2022/08/10 08:13:54;;;;;;;0.40;0.40;;;21.40;99.90;;;;;;5051686;28;20316;-68
2022/08/10 08:16:24;;;;;;;0.40;0.40;;;21.40;99.90;;;;;;5052938;28;20209;-67
2022/08/10 08:18:55;;;;;;;0.40;0.40;;;21.30;99.90;;;;;;5054562;28;20201;-66
2022/08/10 08:21:45;;;;;;;0.40;0.40;;;21.30;99.90;;;;;;5052433;28;20193;-66
2022/08/10 08:24:35;;;;;;;0.50;0.50;;;21.40;99.90;;;;;;5053201;28;20283;-66
2022/08/10 08:27:06;;;;;;;0.40;0.40;;;21.50;99.90;;;;;;5052982;28;20217;-66
2022/08/10 08:29:38;;;;;;;0.40;0.40;;;21.60;99.90;;;;;;5051581;28;20224;-66
2022/08/10 08:32:07;;;;;;;0.40;0.40;;;21.60;99.90;;;;;;5052073;28;20259;-67
2022/08/10 08:34:42;;;;;;;0.50;0.50;;;21.70;99.90;;;;;;5051438;28;20201;-65
2022/08/10 08:37:13;;;;;;;0.40;0.40;;;21.80;99.90;;;;;;5051604;28;20200;-66
2022/08/10 08:40:01;;;;;;;0.40;0.40;;;21.80;99.90;;;;;;5048679;28;20287;-67
2022/08/10 08:43:02;;;;;;;0.40;0.40;;;21.90;99.90;;;;;;5051843;28;20205;-66
2022/08/10 08:45:39;;;;;;;0.40;0.40;;;22.00;99.90;;;;;;5027670;28;20201;-67
2022/08/10 08:48:45;;;;;;;0.40;0.40;;;22.00;99.90;;;;;;5050971;28;20217;-65
2022/08/10 08:51:29;;;;;;;0.40;0.40;;;22.10;99.90;;;;;;5041289;28;20239;-65
2022/08/10 08:54:33;;;;;;;0.40;0.40;;;22.10;99.90;;;;;;5052989;28;20262;-65
2022/08/10 08:57:07;;;;;;;0.40;0.40;;;22.10;99.90;;;;;;5054341;28;20193;-65
2022/08/10 08:59:51;;;;;;;0.40;0.40;;;22.20;99.90;;;;;;5055816;28;20217;-65
2022/08/10 09:02:33;;;;;;;0.40;0.40;;;22.30;99.90;;;;;;5054551;28;20196;-66
2022/08/10 09:05:25;;;;;;;0.50;0.50;;;22.30;99.90;;;;;;5057599;28;20197;-66
2022/08/10 09:08:26;;;;;;;0.50;0.50;;;22.40;99.90;;;;;;5056358;28;20248;-66
2022/08/10 09:11:00;;;;;;;0.40;0.40;;;22.40;99.90;;;;;;5055841;28;20228;-67
2022/08/10 09:13:32;;;;;;;0.40;0.40;;;22.50;99.90;;;;;;5056138;28;20284;-66
2022/08/10 09:16:13;;;;;;;0.77;0.77;;;22.60;99.90;;;;;;5055302;28;20209;-65
2022/08/10 09:18:49;;;;;;;0.40;0.40;;;22.60;99.90;;;;;;5055229;28;20202;-65
2022/08/10 09:21:24;;;;;;;0.40;0.40;;;22.70;99.90;;;;;;5054914;28;20205;-66
2022/08/10 09:24:00;;;;;;;0.40;0.40;;;22.80;99.90;;;;;;5055224;28;20251;-66
2022/08/10 09:26:42;;;;;;;0.40;0.40;;;22.80;99.90;;;;;;5055164;28;20193;-65
2022/08/10 09:29:15;;;;;;;0.40;0.40;;;22.90;99.90;;;;;;5055014;28;20224;-66
2022/08/10 09:31:46;;;;;;;0.40;0.40;;;22.90;99.90;;;;;;5055187;28;20771;-65
2022/08/10 09:34:44;;;;;;;0.40;0.40;;;23.00;97.70;;;;;;5055144;28;20715;-66
2022/08/10 09:37:41;;;;;;;0.40;0.40;;;23.20;98.80;;;;;;5055168;28;20874;-66
2022/08/10 09:40:38;;;;;;;0.40;0.40;;;23.10;99.90;;;;;;5055397;28;20222;-65
2022/08/10 09:43:36;;;;;;;0.40;0.40;;;23.20;97.10;;;;;;5054708;28;20692;-65
2022/08/10 09:46:13;;;;;;;0.68;0.68;;;23.20;95.20;;;;;;5034686;28;20698;-66
2022/08/10 09:48:47;;;;;;;0.50;0.50;;;23.30;94.50;;;;;;5034864;28;20730;-66
2022/08/10 09:51:29;;;;;;;0.50;0.50;;;23.40;93.50;;;;;;5034291;28;20628;-64
2022/08/10 09:54:26;;;;;;;0.40;0.40;;;23.50;94.20;;;;;;5035107;28;20292;-66
2022/08/10 09:57:05;;;;;;;0.40;0.40;;;23.50;93.90;;;;;;5034800;28;20544;-65
2022/08/10 10:00:01;;;;;;;0.40;0.40;;;23.50;93.80;;;;;;5034230;28;20698;-66
2022/08/10 10:02:42;;;;;;;0.40;0.40;;;23.60;92.70;;;;;;5034747;28;20272;-65
2022/08/10 10:05:20;;;;;;;0.40;0.40;;;23.50;93.00;;;;;;5035422;28;20567;-65
2022/08/10 10:07:55;;;;;;;0.40;0.40;;;23.60;92.80;;;;;;5036830;28;20218;-64
2022/08/10 10:10:29;;;;;;;0.40;0.40;;;23.60;91.80;;;;;;5050856;28;20247;-64
2022/08/10 10:13:06;;;;;;;0.50;0.50;;;23.70;92.00;;;;;;5056974;28;20728;-65
2022/08/10 10:15:40;;;;;;;0.40;0.40;;;23.70;91.70;;;;;;5056933;28;20201;-65
2022/08/10 10:18:19;;;;;;;0.40;0.40;;;23.80;91.70;;;;;;5056617;28;20197;-65
2022/08/10 10:20:55;;;;;;;0.40;0.40;;;23.80;90.50;;;;;;5055780;28;20225;-65
2022/08/10 10:23:34;;;;;;;0.40;0.40;;;23.90;88.10;;;;;;5056035;28;20198;-64
2022/08/10 10:26:19;;;;;;;0.40;0.40;;;23.90;87.50;;;;;;5055747;28;20570;-65
2022/08/10 10:28:59;;;;;;;0.50;0.50;;;23.90;87.70;;;;;;5055949;28;20240;-64
2022/08/10 10:31:57;;;;;;;0.40;0.40;;;24.00;87.80;;;;;;5057389;28;20201;-64
2022/08/10 10:34:34;;;;;;;0.40;0.40;;;24.00;86.80;;;;;;5055928;28;20569;-65
2022/08/10 10:37:05;;;;;;;0.40;0.40;;;24.10;87.10;;;;;;5055535;28;20548;-64
2022/08/10 10:39:35;;;;;;;0.40;0.40;;;24.10;85.90;;;;;;5054673;28;20218;-64
2022/08/10 10:42:16;;;;;;;0.40;0.40;;;24.20;85.90;;;;;;5055676;28;20240;-64
2022/08/10 10:45:17;;;;;;;0.40;0.40;;;24.20;84.30;;;;;;5056012;28;20209;-64
2022/08/10 10:48:05;;;;;;;0.40;0.40;;;24.20;78.20;;;;;;5052273;28;20198;-64
2022/08/10 10:50:43;;;;;;;0.40;0.40;;;24.20;79.20;;;;;;5053058;28;20249;-64
2022/08/10 10:53:24;;;;;;;0.40;0.40;;;24.20;79.40;;;;;;5053150;28;20193;-64
2022/08/10 10:55:59;;;;;;;0.40;0.40;;;24.30;78.30;;;;;;5053327;28;20288;-65
2022/08/10 10:58:58;;;;;;;0.80;0.80;;;24.30;78.80;;;;;;5053390;28;20193;-65
2022/08/10 11:01:50;;;;;;;0.40;0.40;;;24.40;79.50;;;;;;5053514;28;20225;-65
2022/08/10 11:04:23;;;;;;;0.40;0.40;;;24.50;81.00;;;;;;5053034;28;20201;-65
2022/08/10 11:07:02;;;;;;;0.40;0.40;;;24.40;80.70;;;;;;5053098;28;20228;-64
2022/08/10 11:09:37;;;;;;;0.40;0.40;;;24.40;81.50;;;;;;5052407;28;20216;-65
2022/08/10 11:12:33;;;;;;;0.40;0.40;;;24.60;80.60;;;;;;5053550;28;20201;-65
2022/08/10 11:15:06;;;;;;;0.40;0.40;;;24.70;79.10;;;;;;5033245;28;20205;-65
2022/08/10 11:17:42;;;;;;;0.40;0.40;;;24.70;78.20;;;;;;5033361;28;20213;-65
2022/08/10 11:20:15;;;;;;;0.40;0.40;;;24.70;79.00;;;;;;5052176;28;20575;-65
2022/08/10 11:22:52;;;;;;;0.40;0.40;;;24.80;78.30;;;;;;5052162;28;20271;-65
2022/08/10 11:25:27;;;;;;;0.40;0.40;;;24.80;78.50;;;;;;5052800;28;20189;-65
2022/08/10 11:28:00;;;;;;;0.40;0.40;;;24.80;78.80;;;;;;5052272;28;20240;-65
2022/08/10 11:30:39;;;;;;;0.40;0.40;;;24.90;79.00;;;;;;5052541;28;20256;-65
2022/08/10 11:33:15;;;;;;;0.40;0.40;;;24.90;77.90;;;;;;5052903;28;20255;-65
2022/08/10 11:36:08;;;;;;;0.40;0.40;;;24.90;78.10;;;;;;5052338;28;20208;-65
2022/08/10 11:38:54;;;;;;;0.40;0.40;;;24.90;77.70;;;;;;5053316;28;20202;-65
2022/08/10 11:41:48;;;;;;;0.40;0.40;;;24.90;77.70;;;;;;5052893;28;20204;-64
2022/08/10 11:44:45;;;;;;;0.40;0.40;;;25.00;76.60;;;;;;5052868;28;20209;-65
2022/08/10 11:47:19;;;;;;;0.40;0.40;;;25.10;76.10;;;;;;5052907;28;20244;-64
2022/08/10 11:49:53;;;;;;;0.40;0.40;;;25.10;75.30;;;;;;5052609;28;20217;-65
2022/08/10 11:52:31;;;;;;;0.40;0.40;;;25.20;72.80;;;;;;5052625;28;20204;-65
2022/08/10 11:55:09;;;;;;;0.40;0.40;;;25.30;71.30;;;;;;5052113;28;20255;-65
2022/08/10 11:57:39;;;;;;;0.40;0.40;;;25.30;71.30;;;;;;5052302;28;20568;-64
2022/08/10 12:00:24;;;;;;;0.40;0.40;;;25.30;70.70;;;;;;5051669;28;20225;-64
2022/08/10 12:03:02;;;;;;;0.40;0.40;;;25.40;69.40;;;;;;5051810;28;20197;-65
2022/08/10 12:05:35;;;;;;;0.40;0.40;;;25.50;70.20;;;;;;5051800;28;20201;-65
2022/08/10 12:08:24;;;;;;;0.40;0.40;;;25.50;70.10;;;;;;5051905;28;20247;-65
2022/08/10 12:11:16;;;;;;;0.40;0.40;;;25.70;69.60;;;;;;5052464;28;20257;-65
2022/08/10 12:13:59;;;;;;;0.40;0.40;;;25.70;69.10;;;;;;5052182;28;20197;-65
2022/08/10 12:16:51;;;;;;;0.40;0.40;;;25.70;68.40;;;;;;5052178;28;20209;-63
2022/08/10 12:19:25;;;;;;;0.40;0.40;;;25.80;68.60;;;;;;5052081;28;20221;-64
2022/08/10 12:22:00;;;;;;;0.70;0.70;;;25.80;68.30;;;;;;5049567;28;20223;-64
2022/08/10 12:24:37;;;;;;;0.40;0.40;;;25.80;69.00;;;;;;5052804;28;20228;-64
2022/08/10 12:27:19;;;;;;;0.40;0.40;;;25.80;67.00;;;;;;5049243;28;20201;-64
2022/08/10 12:29:53;;;;;;;0.40;0.40;;;25.90;67.00;;;;;;5050397;28;20225;-64
2022/08/10 12:32:35;;;;;;;0.40;0.40;;;25.90;69.30;;;;;;5037275;28;20197;-64
2022/08/10 12:35:12;;;;;;;0.40;0.40;;;25.90;69.10;;;;;;5051492;28;20212;-64
2022/08/10 12:38:02;;;;;;;0.40;0.40;;;26.00;67.90;;;;;;5044229;28;20202;-64
2022/08/10 12:40:36;;;;;;;0.40;0.40;;;26.10;69.00;;;;;;5051415;28;20213;-64
2022/08/10 12:43:10;;;;;;;0.40;0.40;;;26.10;68.80;;;;;;5052135;28;20205;-64
2022/08/10 12:46:06;;;;;;;0.70;0.70;;;26.10;69.70;;;;;;5051778;28;20206;-64
2022/08/10 12:48:41;;;;;;;0.40;0.40;;;26.40;69.60;;;;;;5051893;28;20280;-64
2022/08/10 12:51:18;;;;;;;1.85;1.05;;;26.90;69.10;;;;;;5051105;28;20216;-64
2022/08/10 12:53:56;;;;;;;0.73;0.73;;;27.70;64.90;;;;;;5051747;28;20201;-64
2022/08/10 12:56:27;;;;;;;0.40;0.40;;;28.80;63.90;;;;;;5050984;28;20704;-65
2022/08/10 12:58:56;;;;;;;0.40;0.40;;;30.20;61.70;;;;;;5051660;28;20197;-64
2022/08/10 13:01:54;;;;;;;0.40;0.40;;;31.80;59.00;;;;;;5051912;28;20295;-64
2022/08/10 13:04:41;;;;;;;0.40;0.40;;;33.60;55.00;;;;;;5052759;28;20211;-64
2022/08/10 13:07:10;;;;;;;0.40;0.40;;;35.30;52.10;;;;;;5052533;28;20198;-65
2022/08/10 13:10:03;;;;;;;0.40;0.40;;;36.70;48.30;;;;;;5052082;28;20229;-65
2022/08/10 13:12:35;;;;;;;0.40;0.40;;;38.10;44.60;;;;;;5052863;28;20201;-64
2022/08/10 13:15:17;;;;;;;0.40;0.40;;;38.80;43.30;;;;;;5051954;28;20263;-64
2022/08/10 13:18:08;;;;;;;0.40;0.40;;;39.90;40.20;;;;;;5052129;28;20209;-65
2022/08/10 13:20:51;;;;;;;0.40;0.40;;;40.90;39.00;;;;;;5051942;28;20225;-65
2022/08/10 13:23:23;;;;;;;0.50;0.50;;;42.00;37.50;;;;;;5051809;28;20251;-65
2022/08/10 13:25:56;;;;;;;0.40;0.40;;;42.70;35.50;;;;;;5051497;28;20220;-65
2022/08/10 13:28:33;;;;;;;0.50;0.50;;;43.60;35.60;;;;;;5051204;28;20205;-65
2022/08/10 13:31:11;;;;;;;0.40;0.40;;;44.00;34.30;;;;;;5050862;28;20233;-65
2022/08/10 13:33:47;;;;;;;0.50;0.50;;;45.10;33.60;;;;;;5051061;28;20229;-65
2022/08/10 13:36:38;;;;;;;0.50;0.50;;;45.80;32.00;;;;;;5051219;28;20198;-65
2022/08/10 13:39:06;;;;;;;0.50;0.50;;;46.20;30.80;;;;;;5046274;28;20214;-65
2022/08/10 13:41:40;;;;;;;0.50;0.50;;;46.40;29.90;;;;;;5050674;28;20214;-65
2022/08/10 13:44:12;;;;;;;0.50;0.50;;;45.60;30.10;;;;;;5032969;28;20294;-65
2022/08/10 13:46:47;;;;;;;0.50;0.50;;;45.10;30.00;;;;;;5039656;28;20275;-65
2022/08/10 13:49:16;;;;;;;0.50;0.50;;;45.00;30.30;;;;;;5054060;28;20272;-65
2022/08/10 13:51:46;;;;;;;0.50;0.50;;;45.30;30.60;;;;;;5054550;28;20201;-65
2022/08/10 13:54:26;;;;;;;0.50;0.50;;;45.80;30.00;;;;;;5054643;28;20281;-65
2022/08/10 13:56:57;;;;;;;0.50;0.50;;;46.50;29.60;;;;;;5054636;28;20205;-65
2022/08/10 13:59:29;;;;;;;0.50;0.50;;;46.80;29.20;;;;;;5053863;28;20221;-65
2022/08/10 14:02:24;;;;;;;0.60;0.60;;;47.00;29.20;;;;;;5054527;28;20201;-65
2022/08/10 14:04:55;;;;;;;0.50;0.50;;;47.70;28.70;;;;;;5054100;28;20674;-65
2022/08/10 14:07:25;;;;;;;0.50;0.50;;;47.60;28.90;;;;;;5054341;28;20698;-65
2022/08/10 14:10:03;;;;;;;0.52;0.52;;;47.50;28.60;;;;;;5053474;28;20670;-65
2022/08/10 14:12:35;;;;;;;0.50;0.50;;;46.50;28.30;;;;;;5054030;28;20201;-65
2022/08/10 14:15:06;;;;;;;0.50;0.50;;;46.00;28.90;;;;;;5054874;28;20553;-64
2022/08/10 14:17:35;;;;;;;0.50;0.50;;;46.00;29.30;;;;;;5054092;28;20259;-65
2022/08/10 14:20:10;;;;;;;0.50;0.50;;;45.50;28.80;;;;;;5054582;28;20556;-65
2022/08/10 14:22:43;;;;;;;0.50;0.50;;;44.50;29.30;;;;;;5054784;28;20245;-65
2022/08/10 14:25:14;;;;;;;0.50;0.50;;;42.60;29.70;;;;;;5054977;28;20237;-65
2022/08/10 14:27:47;;;;;;;0.43;0.43;;;40.60;31.00;;;;;;5055167;28;20600;-65
2022/08/10 14:30:32;;;;;;;0.50;0.50;;;38.90;32.40;;;;;;5053786;28;20240;-65
2022/08/10 14:33:03;;;;;;;0.40;0.40;;;38.40;33.60;;;;;;5053723;28;20206;-65
2022/08/10 14:35:36;;;;;;;0.50;0.50;;;39.10;33.50;;;;;;5053868;28;20205;-65